Time;durP1;ratioP1;P1;durP2;ratioP2;P2;SDS_P1;SDS_P2;PMS_P1;PMS_P2;Temp;Humidity;BMP_temperature;BMP_pressure;BME280_temperature;BME280_humidity;BME280_pressure;Samples;Min_cycle;Max_cycle;Signal;HPM_P1;HPM_P2
2021/01/19 00:02:13;;;;;;;34.17;9.27;;;5.60;99.90;;;;;;4980664;28;20268;-89
2021/01/19 00:04:39;;;;;;;29.63;9.53;;;5.50;99.90;;;;;;4980371;28;20225;-89
2021/01/19 00:07:07;;;;;;;37.07;9.67;;;5.40;99.90;;;;;;4964527;28;20209;-88
2021/01/19 00:09:32;;;;;;;27.37;9.47;;;5.40;99.90;;;;;;4981076;28;20250;-89
2021/01/19 00:12:00;;;;;;;22.10;9.33;;;5.30;99.90;;;;;;4982268;28;20544;-89
2021/01/19 00:14:26;;;;;;;29.67;9.37;;;5.30;99.90;;;;;;5002600;28;20161;-89
2021/01/19 00:16:52;;;;;;;29.23;9.30;;;5.30;99.90;;;;;;5003808;28;20241;-92
2021/01/19 00:19:17;;;;;;;31.83;9.63;;;5.20;99.90;;;;;;5002937;28;20224;-90
2021/01/19 00:21:47;;;;;;;31.73;10.27;;;5.20;99.90;;;;;;4965702;28;20185;-89
2021/01/19 00:24:15;;;;;;;34.90;11.23;;;5.30;99.90;;;;;;4968076;28;20221;-89
2021/01/19 00:26:40;;;;;;;45.33;11.87;;;5.30;99.90;;;;;;4981049;28;20204;-88
2021/01/19 00:29:06;;;;;;;38.00;12.13;;;5.20;99.90;;;;;;4980324;28;20177;-89
2021/01/19 00:31:32;;;;;;;40.13;12.80;;;5.20;99.90;;;;;;4996570;28;20217;-89
2021/01/19 00:34:00;;;;;;;32.17;12.03;;;5.20;99.90;;;;;;5003283;28;20253;-91
2021/01/19 00:36:28;;;;;;;48.27;12.03;;;5.20;99.90;;;;;;4999297;28;20201;-89
2021/01/19 00:38:53;;;;;;;32.63;11.30;;;5.20;99.90;;;;;;4979819;28;20192;-89
2021/01/19 00:41:19;;;;;;;39.40;12.00;;;5.30;99.90;;;;;;4980277;28;20186;-89
2021/01/19 00:43:47;;;;;;;33.03;10.53;;;5.30;99.90;;;;;;4979550;28;20192;-89
2021/01/19 00:46:13;;;;;;;34.47;11.43;;;5.30;99.90;;;;;;4983223;28;20185;-89
2021/01/19 00:48:38;;;;;;;31.37;10.60;;;5.20;99.90;;;;;;4984024;28;20545;-90
2021/01/19 00:51:04;;;;;;;36.00;10.53;;;5.30;99.90;;;;;;4980221;28;20694;-90
2021/01/19 00:53:30;;;;;;;37.60;10.37;;;5.40;99.90;;;;;;4980082;28;20182;-89
2021/01/19 00:56:03;;;;;;;41.50;10.47;;;5.40;99.90;;;;;;4980000;28;20173;-90
2021/01/19 00:58:28;;;;;;;37.43;11.13;;;5.40;99.90;;;;;;4980552;28;20177;-89
2021/01/19 01:00:54;;;;;;;33.30;10.57;;;5.40;99.90;;;;;;4979907;28;20281;-90
2021/01/19 01:03:20;;;;;;;24.90;10.37;;;5.40;99.90;;;;;;4979722;28;20217;-89
2021/01/19 01:05:47;;;;;;;36.43;10.43;;;5.50;99.90;;;;;;4979773;28;20177;-89
2021/01/19 01:08:13;;;;;;;24.80;9.83;;;5.60;99.90;;;;;;4979690;28;20208;-90
2021/01/19 01:10:38;;;;;;;41.53;10.07;;;5.60;99.90;;;;;;4979466;28;20201;-90
2021/01/19 01:13:04;;;;;;;38.93;10.40;;;5.60;99.90;;;;;;4960365;28;20601;-90
2021/01/19 01:15:35;;;;;;;30.80;10.97;;;5.60;99.90;;;;;;4960609;28;20262;-89
2021/01/19 01:18:01;;;;;;;29.63;10.43;;;5.70;99.90;;;;;;4977801;28;20263;-89
2021/01/19 01:20:27;;;;;;;22.10;8.80;;;5.60;99.90;;;;;;4976540;28;20190;-90
2021/01/19 01:22:53;;;;;;;26.07;9.13;;;5.70;99.90;;;;;;4960406;28;20189;-90
2021/01/19 01:25:19;;;;;;;31.70;8.77;;;5.70;99.90;;;;;;4981263;28;20182;-88
2021/01/19 01:27:47;;;;;;;27.97;9.90;;;5.80;99.90;;;;;;4964674;28;20181;-90
2021/01/19 01:30:15;;;;;;;30.77;10.10;;;5.90;99.90;;;;;;4975839;28;20305;-89
2021/01/19 01:32:48;;;;;;;29.57;9.83;;;5.90;99.90;;;;;;4976262;28;20201;-90
2021/01/19 01:35:14;;;;;;;36.53;10.80;;;5.90;99.90;;;;;;4978743;28;20580;-90
2021/01/19 01:37:54;;;;;;;31.10;11.43;;;5.90;99.90;;;;;;4978491;28;20236;-90
2021/01/19 01:40:25;;;;;;;29.30;10.77;;;5.90;99.90;;;;;;4995916;28;20169;-89
2021/01/19 01:42:52;;;;;;;33.80;10.83;;;6.00;99.90;;;;;;4978372;28;20186;-90
2021/01/19 01:45:22;;;;;;;32.07;10.90;;;6.00;99.90;;;;;;4978171;28;20235;-89
2021/01/19 01:47:49;;;;;;;30.10;10.00;;;6.00;99.90;;;;;;4978040;28;20190;-90
2021/01/19 01:50:19;;;;;;;32.17;9.07;;;6.00;99.90;;;;;;4978432;28;20228;-90
2021/01/19 01:52:45;;;;;;;27.97;8.67;;;6.00;99.90;;;;;;4995497;28;20237;-90
2021/01/19 01:55:12;;;;;;;30.63;8.90;;;6.00;99.90;;;;;;4977654;28;20181;-90
2021/01/19 01:57:39;;;;;;;35.20;9.43;;;6.00;99.90;;;;;;4962216;28;20190;-91
2021/01/19 02:00:07;;;;;;;21.00;9.47;;;6.00;99.90;;;;;;4977778;28;20244;-89
2021/01/19 02:02:35;;;;;;;33.43;9.80;;;5.90;99.90;;;;;;4977998;28;20181;-90
2021/01/19 02:05:01;;;;;;;23.53;9.30;;;5.90;99.90;;;;;;4977962;28;20181;-90
2021/01/19 02:07:39;;;;;;;27.93;9.43;;;5.80;99.90;;;;;;4977777;28;20200;-89
2021/01/19 02:10:23;;;;;;;27.43;9.27;;;5.80;99.90;;;;;;4995271;28;20205;-89
2021/01/19 02:12:57;;;;;;;31.57;10.40;;;5.80;99.90;;;;;;4978032;28;20192;-89
2021/01/19 02:15:38;;;;;;;32.13;10.20;;;5.80;99.90;;;;;;4978108;28;20199;-89
2021/01/19 02:18:37;;;;;;;38.50;11.60;;;5.70;99.90;;;;;;4981265;28;20177;-89
2021/01/19 02:21:38;;;;;;;37.27;11.93;;;5.70;99.90;;;;;;4978162;28;20185;-90
2021/01/19 02:24:10;;;;;;;34.13;11.53;;;5.70;99.90;;;;;;4978134;28;20204;-89
2021/01/19 02:26:52;;;;;;;41.27;12.13;;;5.70;99.90;;;;;;4977859;28;20228;-89
2021/01/19 02:29:50;;;;;;;42.73;12.57;;;5.70;99.90;;;;;;4977814;28;20185;-90
2021/01/19 02:32:32;;;;;;;39.83;11.57;;;5.70;99.90;;;;;;4993138;28;20535;-89
2021/01/19 02:35:14;;;;;;;32.97;12.63;;;5.70;99.90;;;;;;4977977;28;20182;-89
2021/01/19 02:38:37;;;;;;;40.50;14.90;;;5.80;99.90;;;;;;4995089;28;20181;-90
2021/01/19 02:41:04;;;;;;;45.20;14.80;;;5.70;99.90;;;;;;4955064;28;20196;-90
2021/01/19 02:43:30;;;;;;;40.70;14.63;;;5.70;99.90;;;;;;4961853;29;20207;-88
2021/01/19 02:45:57;;;;;;;43.13;15.27;;;5.80;99.90;;;;;;4980403;28;20182;-90
2021/01/19 02:48:23;;;;;;;53.53;14.67;;;5.70;99.90;;;;;;4998731;28;20245;-90
2021/01/19 02:50:50;;;;;;;35.73;13.53;;;5.70;99.90;;;;;;4978563;28;20252;-90
2021/01/19 02:53:17;;;;;;;39.67;13.60;;;5.70;99.90;;;;;;4977671;28;20189;-90
2021/01/19 02:55:44;;;;;;;34.27;11.67;;;5.70;99.90;;;;;;4995415;28;20174;-89
2021/01/19 02:58:22;;;;;;;29.90;11.00;;;5.70;99.90;;;;;;4977918;28;20182;-90
2021/01/19 03:01:02;;;;;;;39.13;11.30;;;5.70;99.90;;;;;;4994501;28;20162;-90
2021/01/19 03:03:32;;;;;;;34.80;11.17;;;5.70;99.90;;;;;;5000254;28;20185;-91
2021/01/19 03:06:12;;;;;;;37.37;10.87;;;5.70;99.90;;;;;;4994230;28;20193;-90
2021/01/19 03:08:41;;;;;;;33.90;12.50;;;5.70;99.90;;;;;;4977375;28;20205;-89
2021/01/19 03:11:10;;;;;;;39.03;13.00;;;5.70;99.90;;;;;;4978931;28;20265;-91
2021/01/19 03:13:39;;;;;;;40.03;12.80;;;5.70;99.90;;;;;;4968196;28;20361;-90
2021/01/19 03:16:13;;;;;;;44.63;14.63;;;5.70;99.90;;;;;;4978009;28;20276;-90
2021/01/19 03:18:42;;;;;;;57.20;15.43;;;5.70;99.90;;;;;;4981897;28;20268;-90
2021/01/19 03:21:09;;;;;;;35.30;13.00;;;5.70;99.90;;;;;;4981820;28;20189;-90
2021/01/19 03:23:35;;;;;;;39.60;13.37;;;5.80;99.90;;;;;;4981584;28;20182;-90
2021/01/19 03:26:01;;;;;;;34.80;12.93;;;5.80;99.90;;;;;;4984379;28;20189;-90
2021/01/19 03:28:27;;;;;;;36.77;13.10;;;5.80;99.90;;;;;;4984362;28;20205;-90
2021/01/19 03:30:56;;;;;;;38.83;13.17;;;5.80;99.90;;;;;;4981508;28;20669;-91
2021/01/19 03:33:24;;;;;;;31.17;10.97;;;5.80;99.90;;;;;;4998916;28;20631;-91
2021/01/19 03:35:50;;;;;;;34.13;11.67;;;5.80;99.90;;;;;;4981528;28;20173;-90
2021/01/19 03:38:18;;;;;;;25.47;9.90;;;5.80;99.90;;;;;;4980934;28;20189;-91
2021/01/19 03:40:44;;;;;;;26.97;9.63;;;5.90;99.90;;;;;;4998547;28;20220;-90
2021/01/19 03:43:10;;;;;;;25.13;9.93;;;5.90;99.90;;;;;;4981475;28;20243;-90
2021/01/19 03:45:36;;;;;;;21.23;9.30;;;5.90;99.90;;;;;;4981310;28;20585;-89
2021/01/19 03:48:02;;;;;;;26.00;8.50;;;6.00;99.90;;;;;;4980837;28;20177;-90
2021/01/19 03:50:31;;;;;;;19.53;7.73;;;6.00;99.90;;;;;;4981097;28;20689;-90
2021/01/19 03:52:57;;;;;;;27.17;7.97;;;6.10;99.90;;;;;;4980664;28;20186;-90
2021/01/19 03:55:23;;;;;;;28.10;9.30;;;6.10;99.90;;;;;;4981183;28;20177;-90
2021/01/19 03:57:52;;;;;;;24.33;7.87;;;6.10;99.90;;;;;;4980847;28;20251;-90
2021/01/19 04:00:20;;;;;;;22.07;8.30;;;6.10;99.90;;;;;;4965502;28;20212;-89
2021/01/19 04:02:53;;;;;;;21.37;7.90;;;6.10;99.90;;;;;;4980933;28;20184;-90
2021/01/19 04:05:21;;;;;;;27.67;7.37;;;6.20;99.90;;;;;;4980979;28;20177;-90
2021/01/19 04:07:47;;;;;;;15.83;6.33;;;6.20;99.90;;;;;;4980591;28;20204;-89
2021/01/19 04:10:14;;;;;;;10.73;5.37;;;6.20;99.90;;;;;;4980638;28;20304;-90
2021/01/19 04:12:43;;;;;;;17.60;5.47;;;6.30;99.90;;;;;;4980676;28;20181;-90
2021/01/19 04:15:10;;;;;;;11.97;5.33;;;6.30;99.90;;;;;;4964728;28;20189;-90
2021/01/19 04:17:39;;;;;;;13.57;4.87;;;6.30;99.90;;;;;;4980576;28;20208;-90
2021/01/19 04:20:08;;;;;;;16.67;4.27;;;6.40;99.90;;;;;;4979335;28;20185;-89
2021/01/19 04:22:37;;;;;;;17.03;4.73;;;6.40;99.90;;;;;;4980549;28;20177;-89
2021/01/19 04:25:04;;;;;;;14.23;4.30;;;6.50;99.90;;;;;;4980363;28;20177;-89
2021/01/19 04:27:30;;;;;;;13.77;4.60;;;6.50;99.90;;;;;;4963991;28;20204;-90
2021/01/19 04:30:03;;;;;;;22.67;5.13;;;6.60;99.90;;;;;;4979989;28;20669;-89
2021/01/19 04:32:29;;;;;;;10.67;4.07;;;6.60;99.90;;;;;;4980037;28;20181;-89
2021/01/19 04:34:55;;;;;;;10.67;4.30;;;6.60;99.90;;;;;;4980194;28;20174;-89
2021/01/19 04:37:21;;;;;;;16.07;4.80;;;6.60;99.90;;;;;;4980301;28;20190;-89
2021/01/19 04:39:47;;;;;;;10.43;4.33;;;6.60;99.90;;;;;;4983104;28;20190;-89
2021/01/19 04:42:17;;;;;;;18.27;4.13;;;6.60;99.90;;;;;;4982969;28;20248;-89
2021/01/19 04:44:44;;;;;;;17.57;4.27;;;6.60;99.90;;;;;;4980209;28;20190;-89
2021/01/19 04:47:12;;;;;;;14.23;4.40;;;6.60;99.90;;;;;;4980036;28;20189;-89
2021/01/19 04:49:39;;;;;;;17.67;4.70;;;6.60;99.90;;;;;;4981007;28;20661;-89
2021/01/19 04:52:13;;;;;;;13.07;3.60;;;6.60;99.90;;;;;;4980191;28;20188;-89
2021/01/19 04:55:03;;;;;;;8.83;3.33;;;6.60;99.90;;;;;;4980014;28;20325;-89
2021/01/19 04:57:32;;;;;;;21.47;3.97;;;6.60;99.90;;;;;;4982121;28;20182;-90
2021/01/19 05:00:11;;;;;;;16.03;3.93;;;6.60;99.90;;;;;;4981086;28;20178;-91
2021/01/19 05:02:43;;;;;;;10.77;2.97;;;6.50;99.90;;;;;;4981405;28;20536;-89
2021/01/19 05:05:21;;;;;;;19.30;3.77;;;6.50;99.90;;;;;;4980590;28;20178;-90
2021/01/19 05:08:02;;;;;;;16.40;3.70;;;6.60;99.90;;;;;;4980407;28;20232;-90
2021/01/19 05:10:36;;;;;;;16.80;3.93;;;6.50;99.90;;;;;;4998456;28;20696;-91
2021/01/19 05:13:13;;;;;;;12.57;3.53;;;6.60;99.90;;;;;;4970255;28;20149;-90
2021/01/19 05:16:03;;;;;;;16.87;3.53;;;6.50;99.90;;;;;;5002424;28;20208;-92
2021/01/19 05:18:37;;;;;;;12.93;3.30;;;6.50;99.90;;;;;;5000733;28;20193;-91
2021/01/19 05:21:06;;;;;;;14.97;3.43;;;6.50;99.90;;;;;;4980832;28;20261;-90
2021/01/19 05:23:32;;;;;;;12.50;3.40;;;6.50;99.90;;;;;;4998660;28;20178;-92
2021/01/19 05:26:10;;;;;;;18.10;2.87;;;6.50;99.90;;;;;;4981355;28;20678;-91
2021/01/19 05:28:49;;;;;;;10.23;3.23;;;6.40;99.90;;;;;;4980668;28;20169;-91
2021/01/19 05:31:14;;;;;;;10.10;3.03;;;6.50;99.90;;;;;;5001331;28;20193;-90
2021/01/19 05:34:02;;;;;;;12.40;3.40;;;6.50;99.90;;;;;;5018696;28;20176;-91
2021/01/19 05:36:36;;;;;;;10.17;3.60;;;6.50;99.90;;;;;;4991039;28;20578;-89
2021/01/19 05:39:04;;;;;;;14.00;3.40;;;6.50;99.90;;;;;;4981725;28;20240;-91
2021/01/19 05:41:30;;;;;;;10.10;3.07;;;6.50;99.90;;;;;;4981747;28;20232;-90
2021/01/19 05:44:07;;;;;;;10.73;2.63;;;6.50;99.90;;;;;;4980529;28;20300;-90
2021/01/19 05:46:33;;;;;;;17.77;3.63;;;6.50;99.90;;;;;;4978822;28;20181;-92
2021/01/19 05:49:01;;;;;;;15.27;2.97;;;6.50;99.90;;;;;;4978488;28;20189;-91
2021/01/19 05:51:31;;;;;;;14.43;3.37;;;6.50;99.90;;;;;;4998290;28;20213;-91
2021/01/19 05:53:58;;;;;;;12.10;3.57;;;6.50;99.90;;;;;;4977938;28;20181;-91
2021/01/19 05:56:26;;;;;;;18.47;3.10;;;6.50;99.90;;;;;;4995402;28;20177;-91
2021/01/19 05:58:53;;;;;;;16.07;3.17;;;6.50;99.90;;;;;;4978437;28;20645;-90
2021/01/19 06:01:30;;;;;;;15.53;3.13;;;6.50;99.90;;;;;;4995405;28;20188;-91
2021/01/19 06:04:01;;;;;;;8.57;2.47;;;6.50;99.90;;;;;;4978668;28;20181;-92
2021/01/19 06:06:30;;;;;;;9.90;3.07;;;6.40;99.90;;;;;;4978495;28;20266;-92
2021/01/19 06:09:04;;;;;;;9.83;2.87;;;6.40;99.90;;;;;;4978789;28;20272;-91
2021/01/19 06:11:30;;;;;;;9.67;2.20;;;6.40;99.90;;;;;;4979150;28;20213;-91
2021/01/19 06:13:57;;;;;;;11.00;3.03;;;6.40;99.90;;;;;;4979324;28;20209;-91
2021/01/19 06:16:24;;;;;;;12.90;2.70;;;6.40;99.90;;;;;;4978443;28;20188;-90
2021/01/19 06:18:51;;;;;;;11.47;2.87;;;6.30;99.90;;;;;;5004616;28;20347;-90
2021/01/19 06:21:34;;;;;;;12.20;3.43;;;6.40;99.90;;;;;;4970649;28;20193;-91
2021/01/19 06:23:59;;;;;;;13.07;2.70;;;6.40;99.90;;;;;;4979753;28;20689;-91
2021/01/19 06:26:25;;;;;;;15.53;3.20;;;6.40;99.90;;;;;;4963882;28;20182;-91
2021/01/19 06:28:51;;;;;;;7.87;2.83;;;6.40;99.90;;;;;;4982815;28;20257;-91
2021/01/19 06:31:21;;;;;;;15.53;3.00;;;6.40;99.90;;;;;;4984723;28;20270;-91
2021/01/19 06:33:49;;;;;;;18.03;2.97;;;6.40;99.90;;;;;;5000284;28;20178;-92
2021/01/19 06:36:17;;;;;;;7.10;2.80;;;6.40;99.90;;;;;;4981880;28;20261;-90
2021/01/19 06:38:47;;;;;;;8.60;2.47;;;6.40;99.90;;;;;;5016504;28;20234;-95
2021/01/19 06:41:18;;;;;;;12.97;2.87;;;6.40;99.90;;;;;;5018242;28;20180;-91
2021/01/19 06:43:50;;;;;;;12.60;2.67;;;6.40;99.90;;;;;;4986016;28;20197;-91
2021/01/19 06:46:18;;;;;;;7.03;2.80;;;6.40;99.90;;;;;;5005231;28;20180;-92
2021/01/19 06:48:46;;;;;;;8.10;2.30;;;6.40;99.90;;;;;;4998091;28;20220;-91
2021/01/19 06:51:13;;;;;;;8.97;2.43;;;6.40;99.90;;;;;;4983595;28;20209;-92
2021/01/19 06:53:46;;;;;;;5.73;2.07;;;6.30;99.90;;;;;;4963711;28;20258;-91
2021/01/19 06:56:16;;;;;;;12.77;2.80;;;6.30;99.90;;;;;;4980516;28;20182;-90
2021/01/19 06:58:55;;;;;;;9.80;2.80;;;6.30;99.90;;;;;;4981019;28;20174;-93
2021/01/19 07:01:28;;;;;;;10.50;2.57;;;6.40;99.90;;;;;;4982668;28;20181;-92
2021/01/19 07:04:21;;;;;;;5.67;1.83;;;6.40;99.90;;;;;;4984654;28;20603;-92
2021/01/19 07:06:52;;;;;;;6.27;2.03;;;6.40;99.90;;;;;;4982483;28;20197;-91
2021/01/19 07:09:56;;;;;;;7.40;2.40;;;6.40;99.90;;;;;;4982608;28;20185;-90
2021/01/19 07:12:34;;;;;;;6.13;2.27;;;6.40;99.90;;;;;;4948928;28;20638;-90
2021/01/19 07:15:05;;;;;;;6.20;2.43;;;6.40;99.90;;;;;;4963175;28;20220;-92
2021/01/19 07:17:42;;;;;;;8.37;2.43;;;6.40;99.90;;;;;;4946323;28;20582;-91
2021/01/19 07:20:13;;;;;;;9.37;2.50;;;6.40;99.90;;;;;;4962165;28;20202;-90
2021/01/19 07:22:50;;;;;;;5.10;2.13;;;6.40;99.90;;;;;;4962963;28;20170;-91
2021/01/19 07:25:16;;;;;;;5.77;2.50;;;6.40;99.90;;;;;;4979614;28;20169;-90
2021/01/19 07:27:41;;;;;;;13.13;2.67;;;6.50;99.90;;;;;;4962959;28;20178;-90
2021/01/19 07:30:11;;;;;;;7.03;2.17;;;6.50;99.90;;;;;;4980226;28;20212;-90
2021/01/19 07:32:44;;;;;;;10.13;2.70;;;6.40;99.90;;;;;;4999081;28;20626;-92
2021/01/19 07:35:13;;;;;;;6.97;2.37;;;6.50;99.90;;;;;;4965874;28;20194;-91
2021/01/19 07:37:39;;;;;;;4.17;2.00;;;6.50;99.90;;;;;;4980872;28;20204;-91
2021/01/19 07:40:28;;;;;;;6.83;2.17;;;6.40;99.90;;;;;;4980804;28;20630;-91
2021/01/19 07:42:54;;;;;;;5.47;2.10;;;6.40;99.90;;;;;;4987851;28;20178;-89
2021/01/19 07:45:32;;;;;;;4.33;2.00;;;6.40;99.90;;;;;;5003456;28;20218;-91
2021/01/19 07:48:07;;;;;;;10.50;2.47;;;6.50;99.90;;;;;;5021422;28;20182;-91
2021/01/19 07:50:45;;;;;;;5.20;2.20;;;6.50;99.90;;;;;;4983667;28;20661;-92
2021/01/19 07:53:12;;;;;;;2.83;1.87;;;6.50;99.90;;;;;;4980315;28;20177;-90
2021/01/19 07:55:42;;;;;;;8.03;2.60;;;6.50;99.90;;;;;;4965107;28;20181;-91
2021/01/19 07:58:21;;;;;;;3.97;2.17;;;6.50;99.90;;;;;;4980454;28;20189;-92
2021/01/19 08:00:56;;;;;;;6.17;2.80;;;6.60;99.90;;;;;;4995768;28;20188;-91
2021/01/19 08:03:29;;;;;;;5.30;2.37;;;6.60;99.90;;;;;;4986824;28;20169;-92
2021/01/19 08:06:06;;;;;;;4.30;1.60;;;6.60;99.90;;;;;;4997471;28;20608;-92
2021/01/19 08:08:37;;;;;;;6.27;2.07;;;6.60;99.90;;;;;;4981350;28;20219;-91
2021/01/19 08:11:03;;;;;;;4.03;2.03;;;6.60;99.90;;;;;;4981058;28;20205;-91
2021/01/19 08:13:29;;;;;;;7.40;2.20;;;6.70;99.90;;;;;;4980468;28;20181;-91
2021/01/19 08:16:09;;;;;;;4.17;2.00;;;6.70;99.90;;;;;;4963642;28;20188;-91
2021/01/19 08:18:43;;;;;;;3.43;2.07;;;6.70;99.90;;;;;;4980130;28;20189;-90
2021/01/19 08:21:11;;;;;;;4.73;2.00;;;6.80;99.90;;;;;;4979982;28;20189;-90
2021/01/19 08:23:37;;;;;;;5.50;2.27;;;6.80;99.90;;;;;;4980016;28;20573;-89
2021/01/19 08:26:05;;;;;;;12.23;2.27;;;6.80;99.90;;;;;;4963992;28;20185;-89
2021/01/19 08:28:32;;;;;;;6.17;2.27;;;6.90;99.90;;;;;;4980018;28;20189;-89
2021/01/19 08:30:58;;;;;;;3.97;2.50;;;6.90;99.90;;;;;;4979745;28;20216;-90
2021/01/19 08:33:26;;;;;;;6.07;1.97;;;6.90;99.90;;;;;;4963468;28;20292;-88
2021/01/19 08:35:53;;;;;;;7.47;1.97;;;6.90;99.90;;;;;;4979610;28;20204;-89
2021/01/19 08:38:23;;;;;;;6.50;2.20;;;6.90;99.90;;;;;;4963789;28;20196;-89
2021/01/19 08:40:50;;;;;;;7.97;2.20;;;6.90;99.90;;;;;;4960337;28;20284;-90
2021/01/19 08:43:17;;;;;;;8.50;2.23;;;7.00;99.90;;;;;;4944555;28;20277;-90
2021/01/19 08:45:43;;;;;;;5.57;2.30;;;7.00;99.90;;;;;;4960084;28;20282;-89
2021/01/19 08:48:10;;;;;;;5.87;2.03;;;7.10;99.90;;;;;;4944131;28;20280;-91
2021/01/19 08:50:41;;;;;;;5.23;1.80;;;7.10;99.90;;;;;;4945082;28;20242;-88
2021/01/19 08:53:12;;;;;;;3.43;1.70;;;7.20;99.90;;;;;;4962366;28;20205;-89
2021/01/19 08:55:38;;;;;;;7.80;1.63;;;7.20;99.90;;;;;;4946147;28;20209;-90
2021/01/19 08:58:06;;;;;;;3.47;1.80;;;7.30;99.90;;;;;;4981460;28;20181;-90
2021/01/19 09:00:34;;;;;;;2.60;1.40;;;7.30;99.90;;;;;;4981710;28;20181;-90
2021/01/19 09:03:16;;;;;;;2.43;1.90;;;7.40;99.90;;;;;;4981066;28;20181;-90
2021/01/19 09:05:42;;;;;;;3.47;1.83;;;7.40;99.90;;;;;;4961720;28;20294;-89
2021/01/19 09:08:16;;;;;;;5.77;1.77;;;7.40;99.90;;;;;;4967054;28;20796;-88
2021/01/19 09:10:42;;;;;;;3.67;1.50;;;7.50;99.90;;;;;;4980172;28;20224;-88
2021/01/19 09:13:09;;;;;;;8.20;1.97;;;7.60;99.90;;;;;;4982060;28;20205;-89
2021/01/19 09:15:40;;;;;;;5.00;1.77;;;7.60;99.90;;;;;;4981716;28;20193;-90
2021/01/19 09:18:10;;;;;;;5.77;1.63;;;7.70;99.90;;;;;;4961477;28;20695;-89
2021/01/19 09:20:36;;;;;;;3.43;1.73;;;7.70;99.90;;;;;;4979164;28;20193;-89
2021/01/19 09:23:16;;;;;;;3.83;1.83;;;7.80;99.90;;;;;;4979918;28;20277;-88
2021/01/19 09:25:46;;;;;;;6.10;1.63;;;7.80;99.90;;;;;;4960826;28;20186;-89
2021/01/19 09:28:14;;;;;;;3.50;1.63;;;7.90;99.90;;;;;;4944080;28;20237;-88
2021/01/19 09:30:40;;;;;;;1.30;1.20;;;7.90;99.90;;;;;;4963160;28;20244;-88
2021/01/19 09:33:08;;;;;;;3.10;1.70;;;8.00;99.90;;;;;;4964417;28;20186;-88
2021/01/19 09:35:35;;;;;;;8.17;2.00;;;8.00;99.90;;;;;;4979365;28;20189;-88
2021/01/19 09:38:01;;;;;;;3.47;1.60;;;8.10;99.90;;;;;;4978887;28;20177;-89
2021/01/19 09:40:35;;;;;;;5.40;1.73;;;8.10;99.90;;;;;;4979322;28;20196;-89
2021/01/19 09:43:06;;;;;;;3.77;1.90;;;8.10;99.90;;;;;;4979108;28;20623;-89
2021/01/19 09:45:35;;;;;;;1.63;1.50;;;8.10;99.90;;;;;;4979415;28;20638;-83
2021/01/19 09:48:01;;;;;;;6.97;1.90;;;8.20;99.90;;;;;;4994064;28;20190;-83
2021/01/19 09:50:27;;;;;;;3.40;1.63;;;8.20;99.90;;;;;;4976330;28;20296;-86
2021/01/19 09:52:53;;;;;;;3.20;1.53;;;8.20;99.90;;;;;;4960631;28;20189;-83
2021/01/19 09:55:20;;;;;;;4.37;1.83;;;8.30;99.90;;;;;;4961152;28;20193;-83
2021/01/19 09:58:00;;;;;;;1.77;1.50;;;8.40;99.90;;;;;;4994198;28;20288;-84
2021/01/19 10:00:31;;;;;;;4.73;1.83;;;8.40;99.90;;;;;;4965085;28;20188;-83
2021/01/19 10:03:17;;;;;;;3.83;1.77;;;8.50;99.90;;;;;;4994587;28;20212;-84
2021/01/19 10:06:03;;;;;;;2.57;1.63;;;8.60;99.90;;;;;;4977351;28;20200;-89
2021/01/19 10:08:29;;;;;;;3.33;1.40;;;8.50;99.90;;;;;;4997472;28;20224;-89
2021/01/19 10:10:56;;;;;;;3.03;1.67;;;8.50;99.90;;;;;;4998419;28;20210;-89
2021/01/19 10:13:28;;;;;;;1.63;1.47;;;8.50;99.90;;;;;;4975002;28;20182;-89
2021/01/19 10:16:05;;;;;;;2.17;1.30;;;8.50;99.90;;;;;;5015895;28;20161;-88
2021/01/19 10:18:32;;;;;;;6.93;1.60;;;8.50;99.90;;;;;;5011895;28;20181;-90
2021/01/19 10:20:59;;;;;;;5.00;1.40;;;8.60;99.90;;;;;;4979457;28;20193;-89
2021/01/19 10:23:26;;;;;;;2.93;1.50;;;8.60;99.90;;;;;;4978605;28;20185;-88
2021/01/19 10:26:05;;;;;;;1.43;1.33;;;8.60;99.90;;;;;;4962402;28;20547;-88
2021/01/19 10:28:37;;;;;;;4.20;1.50;;;8.60;99.90;;;;;;4979745;28;20181;-89
2021/01/19 10:31:17;;;;;;;2.50;1.50;;;8.60;99.90;;;;;;4987516;28;20215;-88
2021/01/19 10:33:57;;;;;;;2.13;1.43;;;8.70;99.90;;;;;;5014000;28;20173;-89
2021/01/19 10:36:24;;;;;;;1.93;1.30;;;8.60;99.90;;;;;;4981193;28;20169;-88
2021/01/19 10:38:50;;;;;;;2.00;1.60;;;8.70;99.90;;;;;;4978016;28;20657;-88
2021/01/19 10:41:29;;;;;;;3.93;1.80;;;8.70;99.90;;;;;;4961859;28;20217;-88
2021/01/19 10:43:56;;;;;;;3.70;2.00;;;8.70;99.90;;;;;;4978022;28;20534;-87
2021/01/19 10:46:26;;;;;;;2.50;2.17;;;8.70;99.90;;;;;;4980070;28;20186;-88
2021/01/19 10:49:18;;;;;;;5.00;1.90;;;8.70;99.90;;;;;;4995673;28;20324;-88
2021/01/19 10:51:49;;;;;;;4.47;1.73;;;8.60;99.90;;;;;;4976721;28;20700;-88
2021/01/19 10:54:16;;;;;;;4.67;2.17;;;8.60;99.90;;;;;;4995312;28;20176;-88
2021/01/19 10:56:44;;;;;;;4.40;2.10;;;8.60;99.90;;;;;;4978190;28;20181;-88
2021/01/19 10:59:11;;;;;;;2.43;2.17;;;8.60;99.90;;;;;;4978897;28;20269;-89
2021/01/19 11:01:37;;;;;;;2.40;2.20;;;8.70;99.90;;;;;;4985630;28;20543;-88
2021/01/19 11:04:04;;;;;;;4.23;2.13;;;8.70;99.90;;;;;;5005557;28;20185;-89
2021/01/19 11:06:39;;;;;;;4.20;2.20;;;8.70;99.90;;;;;;4989286;28;20185;-88
2021/01/19 11:09:05;;;;;;;2.70;2.40;;;8.80;99.90;;;;;;4989473;28;20173;-88
2021/01/19 11:11:34;;;;;;;2.57;2.30;;;8.80;99.90;;;;;;4986486;28;20851;-88
2021/01/19 11:14:03;;;;;;;5.47;2.50;;;8.80;99.90;;;;;;4969708;28;20622;-87
2021/01/19 11:16:39;;;;;;;3.33;2.50;;;8.70;99.90;;;;;;5003006;28;20256;-87
2021/01/19 11:19:07;;;;;;;2.93;2.67;;;8.70;99.90;;;;;;4985267;28;20189;-88
2021/01/19 11:21:38;;;;;;;6.60;3.00;;;8.60;99.90;;;;;;4985383;28;20277;-88
2021/01/19 11:24:05;;;;;;;3.10;2.67;;;8.60;99.90;;;;;;4969934;28;20185;-89
2021/01/19 11:26:32;;;;;;;5.50;3.50;;;8.60;99.90;;;;;;4984038;28;20185;-88
2021/01/19 11:28:58;;;;;;;5.57;3.67;;;8.60;99.90;;;;;;4969220;28;20216;-88
2021/01/19 11:31:26;;;;;;;5.93;3.03;;;8.60;99.90;;;;;;4987941;28;20213;-88
2021/01/19 11:33:53;;;;;;;5.93;3.30;;;8.70;99.90;;;;;;4988925;28;20207;-88
2021/01/19 11:36:29;;;;;;;4.07;3.47;;;8.70;99.90;;;;;;4987441;28;20240;-87
2021/01/19 11:38:56;;;;;;;4.77;3.40;;;8.70;99.90;;;;;;4988963;28;20268;-89
2021/01/19 11:41:24;;;;;;;4.37;3.20;;;8.70;99.90;;;;;;4989397;28;20630;-88
2021/01/19 11:43:51;;;;;;;6.30;3.50;;;8.70;99.90;;;;;;5006382;28;20250;-88
2021/01/19 11:46:22;;;;;;;8.17;4.47;;;8.70;99.90;;;;;;4992504;28;20173;-89
2021/01/19 11:48:48;;;;;;;3.40;3.00;;;8.60;99.90;;;;;;4987694;28;20550;-89
2021/01/19 11:51:19;;;;;;;4.00;3.70;;;8.70;99.90;;;;;;4987646;28;20236;-89
2021/01/19 11:53:49;;;;;;;3.57;3.30;;;8.70;99.90;;;;;;4988670;28;20585;-88
2021/01/19 11:56:16;;;;;;;3.90;3.60;;;8.70;99.90;;;;;;4996309;28;20204;-88
2021/01/19 11:58:45;;;;;;;6.90;4.77;;;8.70;99.90;;;;;;4990614;28;20177;-89
2021/01/19 12:01:21;;;;;;;6.67;3.43;;;8.80;99.90;;;;;;4989400;28;20181;-89
2021/01/19 12:03:47;;;;;;;4.07;3.70;;;8.80;99.90;;;;;;4987109;28;20177;-89
2021/01/19 12:06:14;;;;;;;5.30;3.63;;;8.80;99.90;;;;;;4986663;28;20185;-89
2021/01/19 12:08:40;;;;;;;3.03;2.67;;;8.90;99.90;;;;;;4987059;28;20189;-88
2021/01/19 12:11:07;;;;;;;4.22;3.67;;;8.90;99.90;;;;;;4971078;28;20216;-89
2021/01/19 12:13:33;;;;;;;4.07;3.43;;;8.90;99.90;;;;;;4987550;28;20182;-89
2021/01/19 12:15:58;;;;;;;5.27;3.33;;;9.00;99.90;;;;;;4987164;28;20196;-90
2021/01/19 12:18:24;;;;;;;7.87;3.27;;;9.10;99.90;;;;;;4986032;28;20259;-88
2021/01/19 12:20:49;;;;;;;3.50;3.20;;;9.10;99.90;;;;;;4969104;28;20217;-87
2021/01/19 12:23:16;;;;;;;6.53;3.63;;;9.10;99.90;;;;;;4969825;28;20583;-88
2021/01/19 12:25:41;;;;;;;4.40;4.03;;;9.20;99.90;;;;;;4970442;28;20197;-89
2021/01/19 12:28:07;;;;;;;5.57;3.90;;;9.10;99.90;;;;;;4989382;28;20174;-88
2021/01/19 12:30:33;;;;;;;5.85;4.22;;;9.20;99.90;;;;;;5008195;28;20686;-89
2021/01/19 12:32:58;;;;;;;7.27;4.17;;;9.10;99.90;;;;;;4975862;28;20200;-89
2021/01/19 12:35:25;;;;;;;9.10;4.25;;;9.10;99.90;;;;;;4992536;28;20188;-88
2021/01/19 12:37:57;;;;;;;9.23;4.43;;;9.20;99.90;;;;;;5009324;28;20220;-89
2021/01/19 12:40:23;;;;;;;6.78;4.15;;;9.20;99.90;;;;;;4995536;28;20188;-89
2021/01/19 12:42:49;;;;;;;5.13;4.63;;;9.20;99.90;;;;;;4998024;28;20185;-89
2021/01/19 12:45:16;;;;;;;4.15;3.85;;;9.20;99.90;;;;;;5004219;28;20177;-87
2021/01/19 12:47:41;;;;;;;6.07;4.88;;;9.30;99.90;;;;;;5000264;28;20595;-88
2021/01/19 12:50:08;;;;;;;5.15;4.65;;;9.30;99.90;;;;;;4997320;28;20213;-89
2021/01/19 12:52:33;;;;;;;8.65;4.63;;;9.30;99.90;;;;;;4995110;28;20220;-89
2021/01/19 12:54:59;;;;;;;7.53;4.70;;;9.20;99.90;;;;;;4976252;28;20189;-89
2021/01/19 12:57:25;;;;;;;5.15;4.65;;;9.20;99.90;;;;;;4984454;28;20224;-88
2021/01/19 12:59:50;;;;;;;8.52;4.75;;;9.20;99.90;;;;;;4994499;28;20168;-89
2021/01/19 13:02:16;;;;;;;6.05;5.47;;;9.20;99.90;;;;;;5017697;28;20233;-91
2021/01/19 13:04:42;;;;;;;8.00;5.38;;;9.20;99.90;;;;;;4969220;28;20189;-89
2021/01/19 13:07:08;;;;;;;7.80;5.68;;;9.30;99.90;;;;;;4962905;28;20554;-89